createdAt,value
2023-02-16T00:01:19.991Z,70.60
2023-02-16T00:03:47.856Z,67.80
2023-02-16T00:06:16.256Z,67.50
2023-02-16T00:08:47.100Z,63.37
2023-02-16T00:11:46.835Z,66.83
2023-02-16T00:14:15.336Z,71.70
2023-02-16T00:16:43.311Z,69.53
2023-02-16T00:19:20.309Z,65.23
2023-02-16T00:21:48.780Z,59.33
2023-02-16T00:24:18.007Z,71.03
2023-02-16T00:26:47.727Z,66.17
2023-02-16T00:29:21.622Z,54.93
2023-02-16T00:31:50.545Z,57.90
2023-02-16T00:34:33.751Z,61.20
2023-02-16T00:37:02.957Z,55.13
2023-02-16T00:39:32.696Z,64.87
2023-02-16T00:42:03.048Z,66.47
2023-02-16T00:44:34.013Z,58.87
2023-02-16T00:47:04.186Z,62.93
2023-02-16T00:49:31.905Z,60.30
2023-02-16T00:51:59.723Z,69.90
2023-02-16T00:54:27.462Z,63.67
2023-02-16T00:56:56.440Z,57.57
2023-02-16T00:59:24.514Z,62.30
2023-02-16T01:01:52.430Z,64.13
2023-02-16T01:04:23.297Z,65.10
2023-02-16T01:07:08.646Z,58.73
2023-02-16T01:09:53.994Z,57.87
2023-02-16T01:12:23.447Z,60.27
2023-02-16T01:14:55.051Z,59.43
2023-02-16T01:17:23.302Z,65.97
2023-02-16T01:19:50.990Z,75.40
2023-02-16T01:22:18.625Z,62.90
2023-02-16T01:24:46.342Z,59.03
2023-02-16T01:27:14.791Z,63.50
2023-02-16T01:29:43.772Z,65.23
2023-02-16T01:32:13.165Z,65.27
2023-02-16T01:34:40.980Z,65.57
2023-02-16T01:37:15.336Z,60.57
2023-02-16T01:39:43.258Z,48.67
2023-02-16T01:42:20.869Z,60.20
2023-02-16T01:44:52.302Z,47.83
2023-02-16T01:47:33.436Z,57.23
2023-02-16T01:50:03.552Z,60.63
2023-02-16T01:52:35.361Z,60.73
2023-02-16T01:55:09.005Z,39.87
2023-02-16T01:57:42.789Z,52.87
2023-02-16T02:00:23.304Z,44.63
2023-02-16T02:03:15.832Z,39.70
2023-02-16T02:05:43.000Z,36.20
2023-02-16T02:08:17.855Z,35.60
2023-02-16T02:10:56.080Z,41.07
2023-02-16T02:13:30.088Z,35.77
2023-02-16T02:16:01.014Z,32.00
2023-02-16T02:18:28.793Z,31.70
2023-02-16T02:21:35.372Z,34.07
2023-02-16T02:24:30.068Z,36.87
2023-02-16T02:27:10.815Z,29.87
2023-02-16T02:30:16.893Z,33.57
2023-02-16T02:32:56.342Z,31.80
2023-02-16T02:35:33.536Z,34.87
2023-02-16T02:38:11.530Z,33.90
2023-02-16T02:40:49.100Z,47.73
2023-02-16T02:43:24.281Z,50.93
2023-02-16T02:45:57.155Z,41.17
2023-02-16T02:48:24.937Z,42.30
2023-02-16T02:51:12.467Z,33.13
2023-02-16T02:53:44.798Z,28.10
2023-02-16T02:56:33.012Z,28.37
2023-02-16T02:59:25.842Z,27.23
2023-02-16T03:01:57.877Z,25.90
2023-02-16T03:04:30.053Z,21.93
2023-02-16T03:06:59.421Z,23.63
2023-02-16T03:09:27.610Z,27.30
2023-02-16T03:12:15.237Z,28.27
2023-02-16T03:14:48.148Z,31.87
2023-02-16T03:17:36.737Z,29.93
2023-02-16T03:20:25.058Z,27.30
2023-02-16T03:23:10.495Z,27.50
2023-02-16T03:25:57.694Z,30.57
2023-02-16T03:28:45.956Z,29.13
2023-02-16T03:31:21.058Z,50.80
2023-02-16T03:33:54.513Z,30.97
2023-02-16T03:36:22.854Z,32.33
2023-02-16T03:38:50.895Z,31.63
2023-02-16T03:41:18.529Z,33.83
2023-02-16T03:43:46.172Z,29.17
2023-02-16T03:46:15.240Z,30.63
2023-02-16T03:48:43.029Z,37.13
2023-02-16T03:51:10.694Z,28.30
2023-02-16T03:53:38.247Z,33.33
2023-02-16T03:56:06.275Z,36.80
2023-02-16T03:58:33.966Z,40.73
2023-02-16T04:01:02.454Z,30.57
2023-02-16T04:03:31.730Z,37.30
2023-02-16T04:06:01.334Z,35.67
2023-02-16T04:08:29.244Z,45.00
2023-02-16T04:10:57.526Z,34.90
2023-02-16T04:13:24.470Z,34.43
2023-02-16T04:15:53.677Z,30.37
2023-02-16T04:18:21.384Z,39.10
2023-02-16T04:20:50.521Z,40.13
2023-02-16T04:23:18.111Z,50.27
2023-02-16T04:25:45.758Z,32.20
2023-02-16T04:28:15.865Z,34.73
2023-02-16T04:30:43.596Z,32.77
2023-02-16T04:33:11.288Z,35.40
2023-02-16T04:35:41.597Z,38.00
2023-02-16T04:38:10.588Z,36.97
2023-02-16T04:40:38.217Z,32.70
2023-02-16T04:43:05.914Z,40.30
2023-02-16T04:45:33.660Z,35.27
2023-02-16T04:48:01.379Z,37.03
2023-02-16T04:50:29.081Z,38.07
2023-02-16T04:52:56.706Z,43.57
2023-02-16T04:55:25.839Z,38.30
2023-02-16T04:57:53.446Z,50.57
2023-02-16T05:00:21.703Z,33.10
2023-02-16T05:02:49.431Z,40.20
2023-02-16T05:05:17.144Z,35.73
2023-02-16T05:07:44.799Z,39.57
2023-02-16T05:10:12.524Z,44.70
2023-02-16T05:12:59.207Z,51.47
2023-02-16T05:15:26.857Z,43.23
2023-02-16T05:17:54.456Z,51.83
2023-02-16T05:20:42.365Z,44.20
2023-02-16T05:23:10.024Z,43.60
2023-02-16T05:25:37.695Z,35.70
2023-02-16T05:28:06.906Z,45.13
2023-02-16T05:30:34.733Z,33.63
2023-02-16T05:33:02.517Z,36.93
2023-02-16T05:35:30.229Z,43.30
2023-02-16T05:37:57.839Z,39.27
2023-02-16T05:40:25.565Z,36.20
2023-02-16T05:42:54.326Z,36.20
2023-02-16T05:45:23.392Z,45.13
2023-02-16T05:47:53.160Z,40.90
2023-02-16T05:50:20.903Z,31.20
2023-02-16T05:52:48.568Z,28.77
2023-02-16T05:55:16.364Z,37.10
2023-02-16T05:57:44.169Z,34.10
2023-02-16T06:00:13.250Z,35.70
2023-02-16T06:02:42.323Z,31.43
2023-02-16T06:05:10.077Z,31.77
2023-02-16T06:07:37.710Z,33.87
2023-02-16T06:10:06.024Z,32.07
2023-02-16T06:12:34.604Z,35.70
2023-02-16T06:15:02.372Z,36.13
2023-02-16T06:17:30.084Z,36.20
2023-02-16T06:19:59.168Z,34.17
2023-02-16T06:22:26.953Z,35.87
2023-02-16T06:24:54.531Z,33.80
2023-02-16T06:27:22.367Z,37.13
2023-02-16T06:29:50.019Z,29.77
2023-02-16T06:32:18.271Z,32.70
2023-02-16T06:34:46.207Z,33.63
2023-02-16T06:37:15.222Z,33.27
2023-02-16T06:39:42.866Z,37.13
2023-02-16T06:42:10.609Z,32.97
2023-02-16T06:44:39.508Z,40.20
2023-02-16T06:47:07.212Z,36.67
2023-02-16T06:49:34.934Z,30.97
2023-02-16T06:52:02.831Z,48.03
2023-02-16T06:54:31.923Z,41.23
2023-02-16T06:56:59.573Z,30.73
2023-02-16T06:59:27.230Z,34.77
2023-02-16T07:01:54.883Z,37.47
2023-02-16T07:04:22.609Z,33.77
2023-02-16T07:06:50.270Z,31.17
2023-02-16T07:09:18.293Z,34.47
2023-02-16T07:11:47.279Z,34.87
2023-02-16T07:14:15.878Z,33.43
2023-02-16T07:16:43.521Z,39.43
2023-02-16T07:19:11.187Z,40.57
2023-02-16T07:21:38.972Z,46.17
2023-02-16T07:24:07.331Z,32.83
2023-02-16T07:26:35.099Z,36.43
2023-02-16T07:29:04.102Z,36.30
2023-02-16T07:31:31.958Z,31.47
2023-02-16T07:33:59.633Z,40.30
2023-02-16T07:36:27.453Z,32.50
2023-02-16T07:38:55.084Z,37.10
2023-02-16T07:41:22.927Z,34.37
2023-02-16T07:43:50.606Z,39.90
2023-02-16T07:46:19.644Z,39.90
2023-02-16T07:48:48.775Z,36.57
2023-02-16T07:51:22.156Z,38.77
2023-02-16T07:53:49.787Z,39.23
2023-02-16T07:56:24.576Z,39.40
2023-02-16T07:58:53.176Z,35.03
2023-02-16T08:01:22.851Z,45.13
2023-02-16T08:03:50.834Z,37.80
2023-02-16T08:06:19.222Z,33.70
2023-02-16T08:08:47.374Z,36.93
2023-02-16T08:11:17.641Z,35.93
2023-02-16T08:13:45.496Z,35.67
2023-02-16T08:16:16.015Z,38.33
2023-02-16T08:18:45.373Z,36.67
2023-02-16T08:21:15.620Z,39.17
2023-02-16T08:23:47.421Z,35.90
2023-02-16T08:26:17.415Z,33.10
2023-02-16T08:28:46.890Z,35.53
2023-02-16T08:31:15.046Z,40.87
2023-02-16T08:33:42.810Z,40.80
2023-02-16T08:36:19.281Z,38.27
2023-02-16T08:38:50.125Z,45.20
2023-02-16T08:41:17.994Z,41.67
2023-02-16T08:43:45.784Z,42.33
2023-02-16T08:46:13.427Z,40.03
2023-02-16T08:48:41.142Z,38.80
2023-02-16T08:51:09.882Z,45.57
2023-02-16T08:53:38.900Z,46.10
2023-02-16T08:56:07.145Z,42.00
2023-02-16T08:58:35.044Z,43.43
2023-02-16T09:01:06.139Z,39.70
2023-02-16T09:03:33.925Z,38.40
2023-02-16T09:06:03.976Z,37.87
2023-02-16T09:08:32.838Z,38.90
2023-02-16T09:11:04.387Z,33.27
2023-02-16T09:13:34.031Z,32.20
2023-02-16T09:16:04.259Z,37.80
2023-02-16T09:18:33.102Z,41.93
2023-02-16T09:21:06.816Z,40.27
2023-02-16T09:23:35.975Z,38.83
2023-02-16T09:26:07.346Z,47.97
2023-02-16T09:28:35.929Z,41.43
2023-02-16T09:31:11.540Z,42.87
2023-02-16T09:33:40.061Z,44.67
2023-02-16T09:36:09.134Z,41.47
2023-02-16T09:38:37.750Z,41.53
2023-02-16T09:41:16.711Z,37.77
2023-02-16T09:43:50.650Z,33.83
2023-02-16T09:46:22.684Z,35.47
2023-02-16T09:48:51.210Z,35.67
2023-02-16T09:51:29.400Z,38.80
2023-02-16T09:54:06.625Z,35.47
2023-02-16T09:56:41.149Z,41.40
2023-02-16T09:59:15.876Z,38.93
2023-02-16T10:01:48.868Z,39.67
2023-02-16T10:04:31.963Z,37.53
2023-02-16T10:07:13.585Z,37.53
2023-02-16T10:09:48.468Z,38.03
2023-02-16T10:12:22.176Z,39.30
2023-02-16T10:14:52.439Z,41.40
2023-02-16T10:17:28.372Z,38.80
2023-02-16T10:20:00.716Z,38.03
2023-02-16T10:22:33.623Z,37.13
2023-02-16T10:25:05.754Z,40.57
2023-02-16T10:27:39.938Z,38.83
2023-02-16T10:30:15.232Z,44.10
2023-02-16T10:32:58.678Z,42.33
2023-02-16T10:35:39.710Z,43.83
2023-02-16T10:38:15.784Z,40.90
2023-02-16T10:40:53.600Z,46.63
2023-02-16T10:43:30.934Z,40.53
2023-02-16T10:46:00.128Z,47.20
2023-02-16T10:48:27.946Z,43.87
2023-02-16T10:51:02.082Z,46.60
2023-02-16T10:53:38.167Z,44.67
2023-02-16T10:56:26.327Z,44.30
2023-02-16T10:58:57.187Z,44.70
2023-02-16T11:01:38.343Z,47.17
2023-02-16T11:04:06.299Z,49.73
2023-02-16T11:06:36.528Z,45.90
2023-02-16T11:09:06.717Z,47.30
2023-02-16T11:11:38.498Z,51.33
2023-02-16T11:14:19.688Z,44.27
2023-02-16T11:16:47.958Z,45.83
2023-02-16T11:19:22.761Z,47.47
2023-02-16T11:21:52.334Z,44.27
2023-02-16T11:24:27.768Z,47.13
2023-02-16T11:27:04.360Z,43.57
2023-02-16T11:29:34.230Z,47.13
2023-02-16T11:32:07.355Z,46.63
2023-02-16T11:34:37.171Z,42.80
2023-02-16T11:37:14.716Z,43.53
2023-02-16T11:39:50.425Z,40.20
2023-02-16T11:42:32.156Z,42.97
2023-02-16T11:45:02.734Z,42.70
2023-02-16T11:47:33.174Z,47.17
2023-02-16T11:50:20.199Z,46.43
2023-02-16T11:52:49.734Z,44.43
2023-02-16T11:55:26.833Z,45.33
2023-02-16T11:57:56.963Z,42.17
2023-02-16T12:00:27.542Z,42.03
2023-02-16T12:03:30.422Z,44.30
2023-02-16T12:06:12.643Z,46.50
2023-02-16T12:08:58.098Z,46.57
2023-02-16T12:11:37.788Z,50.30
2023-02-16T12:14:20.944Z,49.50
2023-02-16T12:16:56.651Z,47.23
2023-02-16T12:19:40.822Z,47.60
2023-02-16T12:22:21.281Z,46.30
2023-02-16T12:24:59.129Z,49.17
2023-02-16T12:27:34.420Z,46.20
2023-02-16T12:30:09.781Z,50.73
2023-02-16T12:32:54.278Z,47.60
2023-02-16T12:35:47.075Z,52.03
2023-02-16T12:38:26.869Z,47.53
2023-02-16T12:41:08.074Z,49.93
2023-02-16T12:43:40.165Z,50.43
2023-02-16T12:46:15.708Z,53.80
2023-02-16T12:48:51.509Z,48.07
2023-02-16T12:51:23.838Z,46.30
2023-02-16T12:54:00.520Z,51.07
2023-02-16T12:56:32.706Z,55.80
2023-02-16T12:59:16.745Z,50.27
2023-02-16T13:01:45.810Z,51.90
2023-02-16T13:04:22.602Z,51.53
2023-02-16T13:06:57.944Z,60.07
2023-02-16T13:09:35.980Z,49.13
2023-02-16T13:12:12.533Z,50.37
2023-02-16T13:14:44.896Z,46.60
2023-02-16T13:17:17.530Z,55.53
2023-02-16T13:19:48.407Z,52.10
2023-02-16T13:22:39.637Z,52.20
2023-02-16T13:25:40.767Z,49.90
2023-02-16T13:28:28.121Z,54.77
2023-02-16T13:31:12.490Z,49.70
2023-02-16T13:33:56.853Z,55.17
2023-02-16T13:37:00.521Z,52.50
2023-02-16T13:40:15.762Z,55.37
2023-02-16T13:43:06.610Z,58.27
2023-02-16T13:45:40.713Z,57.07
2023-02-16T13:48:16.097Z,55.70
2023-02-16T13:50:44.274Z,60.90
2023-02-16T13:53:19.202Z,60.27
2023-02-16T13:55:48.964Z,60.57
2023-02-16T13:58:32.934Z,62.10
2023-02-16T14:01:43.009Z,67.33
2023-02-16T14:04:35.276Z,56.07
2023-02-16T14:07:35.778Z,56.73
2023-02-16T14:10:03.624Z,59.50
2023-02-16T14:12:36.084Z,54.47
2023-02-16T14:15:05.389Z,57.63
2023-02-16T14:17:35.983Z,59.70
2023-02-16T14:20:09.035Z,58.83
2023-02-16T14:22:48.573Z,62.57
2023-02-16T14:25:48.570Z,62.20
2023-02-16T14:29:09.418Z,55.63
2023-02-16T14:31:46.481Z,56.30
2023-02-16T14:34:24.185Z,59.97
2023-02-16T14:37:29.532Z,58.00
2023-02-16T14:40:08.671Z,62.80
2023-02-16T14:42:37.178Z,63.00
2023-02-16T14:45:22.216Z,58.13
2023-02-16T14:47:59.987Z,60.17
2023-02-16T14:50:41.998Z,64.87
2023-02-16T14:53:49.341Z,61.43
2023-02-16T14:56:35.155Z,62.83
2023-02-16T14:59:12.299Z,66.27
2023-02-16T15:01:41.931Z,64.40
2023-02-16T15:04:11.273Z,65.20
2023-02-16T15:06:43.983Z,63.20
2023-02-16T15:09:19.080Z,62.90
2023-02-16T15:12:09.625Z,63.53
2023-02-16T15:14:43.709Z,61.30
2023-02-16T15:17:18.814Z,60.23
2023-02-16T15:19:46.750Z,62.23
2023-02-16T15:22:23.428Z,61.13
2023-02-16T15:24:59.640Z,58.20
2023-02-16T15:27:29.016Z,63.50
2023-02-16T15:30:05.623Z,61.00
2023-02-16T15:32:33.723Z,58.57
2023-02-16T15:35:11.079Z,55.03
2023-02-16T15:37:40.506Z,63.87
2023-02-16T15:40:25.364Z,65.13
2023-02-16T15:42:55.993Z,60.63
2023-02-16T15:45:35.270Z,61.43
2023-02-16T15:48:18.299Z,62.33
2023-02-16T15:50:46.645Z,58.87
2023-02-16T15:53:16.533Z,59.50
2023-02-16T15:55:46.872Z,61.60
2023-02-16T15:58:16.682Z,65.07
2023-02-16T16:00:45.957Z,60.17
2023-02-16T16:03:17.582Z,66.60
2023-02-16T16:05:56.992Z,61.93
2023-02-16T16:08:29.168Z,63.37
2023-02-16T16:10:57.237Z,65.90
2023-02-16T16:13:27.585Z,64.93
2023-02-16T16:16:02.118Z,59.67
2023-02-16T16:18:41.285Z,61.63
2023-02-16T16:21:25.197Z,61.10
2023-02-16T16:24:03.529Z,62.53
2023-02-16T16:26:35.506Z,61.07
2023-02-16T16:29:03.610Z,67.07
2023-02-16T16:31:40.631Z,64.53
2023-02-16T16:34:10.642Z,57.33
2023-02-16T16:36:45.556Z,63.70
2023-02-16T16:39:25.683Z,61.17
2023-02-16T16:42:21.568Z,61.17
2023-02-16T16:44:59.589Z,66.57
2023-02-16T16:47:31.368Z,61.33
2023-02-16T16:50:01.621Z,63.20
2023-02-16T16:52:34.770Z,67.10
2023-02-16T16:55:22.093Z,63.70
2023-02-16T16:57:51.682Z,65.40
2023-02-16T17:00:21.148Z,71.77
2023-02-16T17:02:48.905Z,66.97
2023-02-16T17:05:16.871Z,75.13
2023-02-16T17:07:48.857Z,74.57
2023-02-16T17:10:19.195Z,71.63
2023-02-16T17:12:48.849Z,67.60
2023-02-16T17:15:34.970Z,72.73
2023-02-16T17:18:03.073Z,64.03
2023-02-16T17:20:30.761Z,63.60
2023-02-16T17:23:04.320Z,62.13
2023-02-16T17:25:35.249Z,64.60
2023-02-16T17:28:03.652Z,65.07
2023-02-16T17:30:31.866Z,62.43
2023-02-16T17:33:00.017Z,73.00
2023-02-16T17:35:28.366Z,67.33
2023-02-16T17:37:56.063Z,69.53
2023-02-16T17:40:25.438Z,68.23
2023-02-16T17:42:54.657Z,63.20
2023-02-16T17:45:23.141Z,69.37
2023-02-16T17:47:53.031Z,64.77
2023-02-16T17:50:21.434Z,60.27
2023-02-16T17:52:49.133Z,62.53
2023-02-16T17:55:16.991Z,67.37
2023-02-16T17:57:44.654Z,69.13
2023-02-16T18:00:19.553Z,66.33
2023-02-16T18:02:47.591Z,68.80
2023-02-16T18:05:15.389Z,68.87
2023-02-16T18:07:43.154Z,64.20
2023-02-16T18:10:18.646Z,65.30
2023-02-16T18:12:46.319Z,71.27
2023-02-16T18:15:15.316Z,64.37
2023-02-16T18:17:42.908Z,61.87
2023-02-16T18:20:15.877Z,69.30
2023-02-16T18:22:43.593Z,67.63
2023-02-16T18:25:11.496Z,66.83
2023-02-16T18:27:39.319Z,62.83
2023-02-16T18:30:08.739Z,62.83
2023-02-16T18:32:38.201Z,67.50
2023-02-16T18:35:06.859Z,62.97
2023-02-16T18:37:35.034Z,72.87
2023-02-16T18:40:02.843Z,68.50
2023-02-16T18:42:30.595Z,66.97
2023-02-16T18:44:58.264Z,70.83
2023-02-16T18:47:25.928Z,66.57
2023-02-16T18:49:56.264Z,64.27
2023-02-16T18:52:24.550Z,64.80
2023-02-16T18:54:52.501Z,64.07
2023-02-16T18:57:20.276Z,70.57
2023-02-16T18:59:48.042Z,65.80
2023-02-16T19:02:16.071Z,65.60
2023-02-16T19:04:43.833Z,57.10
2023-02-16T19:07:12.828Z,62.53
2023-02-16T19:09:40.578Z,68.07
2023-02-16T19:12:08.507Z,67.43
2023-02-16T19:14:36.278Z,65.47
2023-02-16T19:17:03.979Z,67.13
2023-02-16T19:19:32.021Z,68.47
2023-02-16T19:21:59.848Z,65.83
2023-02-16T19:24:28.786Z,63.73
2023-02-16T19:26:56.991Z,68.00
2023-02-16T19:29:24.792Z,66.03
2023-02-16T19:31:52.643Z,64.13
2023-02-16T19:34:20.555Z,65.03
2023-02-16T19:36:48.272Z,61.83
2023-02-16T19:39:15.947Z,68.70
2023-02-16T19:41:45.048Z,67.10
2023-02-16T19:44:14.402Z,67.80
2023-02-16T19:46:42.651Z,61.77
2023-02-16T19:49:14.069Z,66.80
2023-02-16T19:51:41.786Z,69.13
2023-02-16T19:54:09.494Z,64.50
2023-02-16T19:56:40.476Z,63.27
2023-02-16T19:59:10.191Z,69.90
2023-02-16T20:01:37.868Z,69.43
2023-02-16T20:04:05.894Z,61.73
2023-02-16T20:06:37.193Z,66.93
2023-02-16T20:09:04.968Z,68.27
2023-02-16T20:11:32.640Z,66.43
2023-02-16T20:14:00.730Z,69.50
2023-02-16T20:16:30.814Z,73.93
2023-02-16T20:18:59.321Z,67.77
2023-02-16T20:21:29.365Z,69.40
2023-02-16T20:23:59.039Z,72.60
2023-02-16T20:26:29.435Z,78.87
2023-02-16T20:28:57.140Z,70.33
2023-02-16T20:31:30.929Z,70.13
2023-02-16T20:33:59.285Z,72.33
2023-02-16T20:36:27.153Z,68.53
2023-02-16T20:38:55.157Z,73.03
2023-02-16T20:41:23.263Z,73.57
2023-02-16T20:43:51.250Z,70.47
2023-02-16T20:46:19.794Z,71.43
2023-02-16T20:48:50.000Z,67.03
2023-02-16T20:51:17.902Z,67.63
2023-02-16T20:53:45.882Z,73.20
2023-02-16T20:56:16.720Z,70.87
2023-02-16T20:58:46.344Z,70.80
2023-02-16T21:01:15.689Z,66.97
2023-02-16T21:03:43.494Z,60.53
2023-02-16T21:06:12.546Z,59.60
2023-02-16T21:08:40.199Z,61.03
2023-02-16T21:11:08.296Z,55.23
2023-02-16T21:13:36.134Z,58.93
2023-02-16T21:16:04.232Z,60.90
2023-02-16T21:18:32.346Z,57.47
2023-02-16T21:21:01.211Z,53.37
2023-02-16T21:23:30.288Z,52.73
2023-02-16T21:25:59.662Z,57.17
2023-02-16T21:28:28.243Z,52.30
2023-02-16T21:30:56.142Z,50.03
2023-02-16T21:33:23.979Z,46.73
2023-02-16T21:35:51.782Z,43.63
2023-02-16T21:38:19.397Z,39.40
2023-02-16T21:41:05.748Z,38.00
2023-02-16T21:43:33.435Z,35.57
2023-02-16T21:46:01.757Z,33.70
2023-02-16T21:48:47.696Z,30.70
2023-02-16T21:51:18.136Z,31.10
2023-02-16T21:53:46.427Z,29.30
2023-02-16T21:56:26.828Z,32.57
2023-02-16T21:58:54.523Z,30.30
2023-02-16T22:01:24.656Z,30.10
2023-02-16T22:03:56.112Z,29.47
2023-02-16T22:06:25.303Z,26.13
2023-02-16T22:08:53.281Z,22.47
2023-02-16T22:11:21.159Z,22.33
2023-02-16T22:13:54.204Z,26.20
2023-02-16T22:16:22.066Z,21.57
2023-02-16T22:18:49.993Z,22.20
2023-02-16T22:21:17.637Z,25.37
2023-02-16T22:23:45.286Z,21.77
2023-02-16T22:26:21.171Z,19.80
2023-02-16T22:28:50.890Z,21.87
2023-02-16T22:31:19.764Z,18.93
2023-02-16T22:33:47.642Z,19.43
2023-02-16T22:36:15.914Z,17.93
2023-02-16T22:38:44.596Z,17.20
2023-02-16T22:41:13.334Z,19.67
2023-02-16T22:43:41.583Z,16.17
2023-02-16T22:46:14.305Z,18.93
2023-02-16T22:48:42.385Z,15.30
2023-02-16T22:51:13.096Z,16.60
2023-02-16T22:53:41.306Z,17.27
2023-02-16T22:56:13.000Z,18.40
2023-02-16T22:58:40.655Z,15.67
2023-02-16T23:01:14.016Z,16.80
2023-02-16T23:03:42.388Z,13.90
2023-02-16T23:06:14.742Z,14.33
2023-02-16T23:08:42.709Z,15.57
2023-02-16T23:11:10.345Z,15.47
2023-02-16T23:13:38.584Z,13.90
2023-02-16T23:16:07.976Z,14.10
2023-02-16T23:18:37.097Z,16.20
2023-02-16T23:21:08.873Z,15.47
2023-02-16T23:23:36.806Z,13.33
2023-02-16T23:26:07.338Z,14.20
2023-02-16T23:28:35.777Z,15.20
2023-02-16T23:31:03.880Z,11.93
2023-02-16T23:33:31.675Z,15.93
2023-02-16T23:36:00.790Z,14.23
2023-02-16T23:38:28.610Z,14.40
2023-02-16T23:40:57.917Z,16.93
2023-02-16T23:43:26.087Z,11.27
2023-02-16T23:45:54.546Z,13.30
2023-02-16T23:48:23.021Z,13.67
2023-02-16T23:50:51.080Z,12.83
2023-02-16T23:53:21.796Z,16.20
2023-02-16T23:55:58.136Z,12.40
2023-02-16T23:58:27.311Z,12.90
